sensor_id;sensor_type;location;lat;lon;timestamp;temperature;humidity
12477;DHT22;6303;51.504;6.300;2023-09-19T00:00:06;27.50;65.70
12477;DHT22;6303;51.504;6.300;2023-09-19T00:02:39;27.50;65.70
12477;DHT22;6303;51.504;6.300;2023-09-19T00:05:07;27.50;65.80
12477;DHT22;6303;51.504;6.300;2023-09-19T00:07:34;27.50;65.70
12477;DHT22;6303;51.504;6.300;2023-09-19T00:10:03;27.50;65.60
12477;DHT22;6303;51.504;6.300;2023-09-19T00:12:30;27.50;65.60
12477;DHT22;6303;51.504;6.300;2023-09-19T00:14:58;27.50;65.70
12477;DHT22;6303;51.504;6.300;2023-09-19T00:17:26;27.50;65.70
12477;DHT22;6303;51.504;6.300;2023-09-19T00:19:57;27.40;65.70
12477;DHT22;6303;51.504;6.300;2023-09-19T00:22:25;27.40;65.60
12477;DHT22;6303;51.504;6.300;2023-09-19T00:24:52;27.40;65.60
12477;DHT22;6303;51.504;6.300;2023-09-19T00:27:20;27.40;65.60
12477;DHT22;6303;51.504;6.300;2023-09-19T00:29:48;27.40;65.70
12477;DHT22;6303;51.504;6.300;2023-09-19T00:32:15;27.40;65.70
12477;DHT22;6303;51.504;6.300;2023-09-19T00:34:42;27.40;66.40
12477;DHT22;6303;51.504;6.300;2023-09-19T00:37:12;27.40;65.60
12477;DHT22;6303;51.504;6.300;2023-09-19T00:39:40;27.40;65.50
12477;DHT22;6303;51.504;6.300;2023-09-19T00:42:07;27.40;65.60
12477;DHT22;6303;51.504;6.300;2023-09-19T00:44:34;27.40;66.40
12477;DHT22;6303;51.504;6.300;2023-09-19T00:47:03;27.40;65.60
12477;DHT22;6303;51.504;6.300;2023-09-19T00:49:30;27.40;65.70
12477;DHT22;6303;51.504;6.300;2023-09-19T00:51:59;27.40;65.70
12477;DHT22;6303;51.504;6.300;2023-09-19T00:54:28;27.30;65.60
12477;DHT22;6303;51.504;6.300;2023-09-19T00:56:55;27.30;65.60
12477;DHT22;6303;51.504;6.300;2023-09-19T00:59:22;27.30;65.50
12477;DHT22;6303;51.504;6.300;2023-09-19T01:01:50;27.30;65.50
12477;DHT22;6303;51.504;6.300;2023-09-19T01:04:20;27.30;65.70
12477;DHT22;6303;51.504;6.300;2023-09-19T01:06:47;27.30;65.70
12477;DHT22;6303;51.504;6.300;2023-09-19T01:09:18;27.30;65.70
12477;DHT22;6303;51.504;6.300;2023-09-19T01:11:48;27.30;65.70
12477;DHT22;6303;51.504;6.300;2023-09-19T01:14:26;27.30;65.70
12477;DHT22;6303;51.504;6.300;2023-09-19T01:17:01;27.30;65.50
12477;DHT22;6303;51.504;6.300;2023-09-19T01:22:57;27.30;65.50
12477;DHT22;6303;51.504;6.300;2023-09-19T01:25:50;27.30;65.50
12477;DHT22;6303;51.504;6.300;2023-09-19T01:28:32;27.10;65.30
12477;DHT22;6303;51.504;6.300;2023-09-19T01:31:09;27.20;65.40
12477;DHT22;6303;51.504;6.300;2023-09-19T01:34:00;27.20;65.30
12477;DHT22;6303;51.504;6.300;2023-09-19T01:36:32;27.20;65.40
12477;DHT22;6303;51.504;6.300;2023-09-19T01:39:02;27.10;65.30
12477;DHT22;6303;51.504;6.300;2023-09-19T01:41:50;27.20;65.30
12477;DHT22;6303;51.504;6.300;2023-09-19T01:44:24;27.20;65.40
12477;DHT22;6303;51.504;6.300;2023-09-19T01:46:58;27.20;65.30
12477;DHT22;6303;51.504;6.300;2023-09-19T01:49:36;27.20;65.30
12477;DHT22;6303;51.504;6.300;2023-09-19T01:52:09;27.20;65.20
12477;DHT22;6303;51.504;6.300;2023-09-19T01:54:45;27.20;65.20
12477;DHT22;6303;51.504;6.300;2023-09-19T01:57:18;27.20;65.90
12477;DHT22;6303;51.504;6.300;2023-09-19T01:59:50;27.10;65.10
12477;DHT22;6303;51.504;6.300;2023-09-19T02:02:22;27.20;65.10
12477;DHT22;6303;51.504;6.300;2023-09-19T02:04:49;27.20;65.10
12477;DHT22;6303;51.504;6.300;2023-09-19T02:07:17;27.20;65.00
12477;DHT22;6303;51.504;6.300;2023-09-19T02:09:44;27.10;64.90
12477;DHT22;6303;51.504;6.300;2023-09-19T02:12:13;27.20;65.00
12477;DHT22;6303;51.504;6.300;2023-09-19T02:14:40;27.10;64.90
12477;DHT22;6303;51.504;6.300;2023-09-19T02:17:08;27.10;64.90
12477;DHT22;6303;51.504;6.300;2023-09-19T02:19:38;27.10;64.80
12477;DHT22;6303;51.504;6.300;2023-09-19T02:22:07;27.10;64.80
12477;DHT22;6303;51.504;6.300;2023-09-19T02:24:36;27.10;64.70
12477;DHT22;6303;51.504;6.300;2023-09-19T02:27:04;27.10;64.70
12477;DHT22;6303;51.504;6.300;2023-09-19T02:29:31;27.10;64.70
12477;DHT22;6303;51.504;6.300;2023-09-19T02:32:00;27.10;64.60
12477;DHT22;6303;51.504;6.300;2023-09-19T02:34:28;27.10;64.60
12477;DHT22;6303;51.504;6.300;2023-09-19T02:36:57;27.10;64.60
12477;DHT22;6303;51.504;6.300;2023-09-19T02:39:24;27.10;64.60
12477;DHT22;6303;51.504;6.300;2023-09-19T02:41:51;27.10;64.60
12477;DHT22;6303;51.504;6.300;2023-09-19T02:44:19;27.10;64.60
12477;DHT22;6303;51.504;6.300;2023-09-19T02:46:46;27.10;64.60
12477;DHT22;6303;51.504;6.300;2023-09-19T02:49:14;27.10;64.60
12477;DHT22;6303;51.504;6.300;2023-09-19T02:51:42;27.10;64.50
12477;DHT22;6303;51.504;6.300;2023-09-19T02:54:11;27.10;64.50
12477;DHT22;6303;51.504;6.300;2023-09-19T02:56:38;27.10;64.40
12477;DHT22;6303;51.504;6.300;2023-09-19T02:59:06;27.00;64.30
12477;DHT22;6303;51.504;6.300;2023-09-19T03:01:36;27.00;64.30
12477;DHT22;6303;51.504;6.300;2023-09-19T03:04:04;27.00;64.30
12477;DHT22;6303;51.504;6.300;2023-09-19T03:06:33;27.00;64.30
12477;DHT22;6303;51.504;6.300;2023-09-19T03:09:01;27.10;64.40
12477;DHT22;6303;51.504;6.300;2023-09-19T03:11:33;27.00;64.30
12477;DHT22;6303;51.504;6.300;2023-09-19T03:14:00;27.00;64.40
12477;DHT22;6303;51.504;6.300;2023-09-19T03:16:28;27.00;64.40
12477;DHT22;6303;51.504;6.300;2023-09-19T03:18:58;27.00;64.50
12477;DHT22;6303;51.504;6.300;2023-09-19T03:21:26;27.00;64.50
12477;DHT22;6303;51.504;6.300;2023-09-19T03:23:56;27.00;64.50
12477;DHT22;6303;51.504;6.300;2023-09-19T03:26:23;27.00;64.50
12477;DHT22;6303;51.504;6.300;2023-09-19T03:28:54;27.00;64.30
12477;DHT22;6303;51.504;6.300;2023-09-19T03:31:21;27.00;64.20
12477;DHT22;6303;51.504;6.300;2023-09-19T03:33:48;27.00;64.40
12477;DHT22;6303;51.504;6.300;2023-09-19T03:36:16;27.00;64.40
12477;DHT22;6303;51.504;6.300;2023-09-19T03:38:43;27.00;64.00
12477;DHT22;6303;51.504;6.300;2023-09-19T03:41:10;27.00;64.10
12477;DHT22;6303;51.504;6.300;2023-09-19T03:43:40;26.90;64.30
12477;DHT22;6303;51.504;6.300;2023-09-19T03:46:08;27.00;64.10
12477;DHT22;6303;51.504;6.300;2023-09-19T03:48:39;26.90;64.10
12477;DHT22;6303;51.504;6.300;2023-09-19T03:51:06;27.00;64.30
12477;DHT22;6303;51.504;6.300;2023-09-19T03:53:34;26.90;64.30
12477;DHT22;6303;51.504;6.300;2023-09-19T03:56:02;26.90;65.00
12477;DHT22;6303;51.504;6.300;2023-09-19T03:58:32;26.90;64.20
12477;DHT22;6303;51.504;6.300;2023-09-19T04:01:03;26.90;64.10
12477;DHT22;6303;51.504;6.300;2023-09-19T04:03:33;26.90;63.80
12477;DHT22;6303;51.504;6.300;2023-09-19T04:06:11;26.90;64.00
12477;DHT22;6303;51.504;6.300;2023-09-19T04:08:39;26.90;63.90
12477;DHT22;6303;51.504;6.300;2023-09-19T04:11:06;26.90;64.00
12477;DHT22;6303;51.504;6.300;2023-09-19T04:13:33;26.90;64.00
12477;DHT22;6303;51.504;6.300;2023-09-19T04:16:00;26.90;63.90
12477;DHT22;6303;51.504;6.300;2023-09-19T04:18:28;26.90;64.00
12477;DHT22;6303;51.504;6.300;2023-09-19T04:20:58;26.90;64.00
12477;DHT22;6303;51.504;6.300;2023-09-19T04:23:26;26.80;64.10
12477;DHT22;6303;51.504;6.300;2023-09-19T04:25:54;26.80;64.10
12477;DHT22;6303;51.504;6.300;2023-09-19T04:28:21;26.80;64.10
12477;DHT22;6303;51.504;6.300;2023-09-19T04:30:48;26.80;64.30
12477;DHT22;6303;51.504;6.300;2023-09-19T04:33:16;26.80;64.30
12477;DHT22;6303;51.504;6.300;2023-09-19T04:35:43;26.80;64.40
12477;DHT22;6303;51.504;6.300;2023-09-19T04:38:11;26.80;64.30
12477;DHT22;6303;51.504;6.300;2023-09-19T04:40:39;26.80;64.00
12477;DHT22;6303;51.504;6.300;2023-09-19T04:43:06;26.80;64.10
12477;DHT22;6303;51.504;6.300;2023-09-19T04:45:33;26.80;64.00
12477;DHT22;6303;51.504;6.300;2023-09-19T04:48:00;26.80;64.20
12477;DHT22;6303;51.504;6.300;2023-09-19T04:50:28;26.80;64.40
12477;DHT22;6303;51.504;6.300;2023-09-19T04:52:55;26.80;64.20
12477;DHT22;6303;51.504;6.300;2023-09-19T04:55:23;26.80;64.20
12477;DHT22;6303;51.504;6.300;2023-09-19T04:57:51;26.80;63.70
12477;DHT22;6303;51.504;6.300;2023-09-19T05:00:20;26.80;63.10
12477;DHT22;6303;51.504;6.300;2023-09-19T05:02:50;26.80;62.30
12477;DHT22;6303;51.504;6.300;2023-09-19T05:05:18;26.80;61.50
12477;DHT22;6303;51.504;6.300;2023-09-19T05:07:45;26.80;61.00
12477;DHT22;6303;51.504;6.300;2023-09-19T05:10:13;26.80;60.70
12477;DHT22;6303;51.504;6.300;2023-09-19T05:12:42;26.80;60.60
12477;DHT22;6303;51.504;6.300;2023-09-19T05:15:14;26.80;61.00
12477;DHT22;6303;51.504;6.300;2023-09-19T05:17:47;26.80;61.90
12477;DHT22;6303;51.504;6.300;2023-09-19T05:20:14;26.80;62.10
12477;DHT22;6303;51.504;6.300;2023-09-19T05:22:50;26.70;61.90
12477;DHT22;6303;51.504;6.300;2023-09-19T05:25:17;26.80;61.50
12477;DHT22;6303;51.504;6.300;2023-09-19T05:27:47;26.00;60.30
12477;DHT22;6303;51.504;6.300;2023-09-19T05:30:16;26.70;60.30
12477;DHT22;6303;51.504;6.300;2023-09-19T05:32:44;26.70;60.00
12477;DHT22;6303;51.504;6.300;2023-09-19T05:35:11;26.70;59.70
12477;DHT22;6303;51.504;6.300;2023-09-19T05:37:38;26.70;59.40
12477;DHT22;6303;51.504;6.300;2023-09-19T05:40:07;26.80;59.00
12477;DHT22;6303;51.504;6.300;2023-09-19T05:42:36;26.80;58.60
12477;DHT22;6303;51.504;6.300;2023-09-19T05:45:06;26.80;58.30
12477;DHT22;6303;51.504;6.300;2023-09-19T05:47:33;26.80;57.90
12477;DHT22;6303;51.504;6.300;2023-09-19T05:50:00;26.80;57.80
12477;DHT22;6303;51.504;6.300;2023-09-19T05:52:28;26.80;57.50
12477;DHT22;6303;51.504;6.300;2023-09-19T05:54:55;26.80;57.10
12477;DHT22;6303;51.504;6.300;2023-09-19T05:57:23;26.80;56.80
12477;DHT22;6303;51.504;6.300;2023-09-19T05:59:50;26.80;56.70
12477;DHT22;6303;51.504;6.300;2023-09-19T06:02:19;26.80;56.50
12477;DHT22;6303;51.504;6.300;2023-09-19T06:04:46;26.80;56.30
12477;DHT22;6303;51.504;6.300;2023-09-19T06:07:13;26.80;56.30
12477;DHT22;6303;51.504;6.300;2023-09-19T06:09:42;26.80;56.20
12477;DHT22;6303;51.504;6.300;2023-09-19T06:12:09;26.80;56.20
12477;DHT22;6303;51.504;6.300;2023-09-19T06:14:39;26.80;56.20
12477;DHT22;6303;51.504;6.300;2023-09-19T06:17:07;26.80;56.20
12477;DHT22;6303;51.504;6.300;2023-09-19T06:19:35;26.60;55.30
12477;DHT22;6303;51.504;6.300;2023-09-19T06:22:03;26.00;55.30
12477;DHT22;6303;51.504;6.300;2023-09-19T06:24:30;25.20;56.30
12477;DHT22;6303;51.504;6.300;2023-09-19T06:26:57;24.50;58.40
12477;DHT22;6303;51.504;6.300;2023-09-19T06:29:27;24.20;59.10
12477;DHT22;6303;51.504;6.300;2023-09-19T06:31:54;24.20;60.10
12477;DHT22;6303;51.504;6.300;2023-09-19T06:34:21;24.10;59.90
12477;DHT22;6303;51.504;6.300;2023-09-19T06:36:51;24.10;60.30
12477;DHT22;6303;51.504;6.300;2023-09-19T06:39:21;24.10;60.20
12477;DHT22;6303;51.504;6.300;2023-09-19T06:41:49;24.00;60.50
12477;DHT22;6303;51.504;6.300;2023-09-19T06:44:16;24.10;60.80
12477;DHT22;6303;51.504;6.300;2023-09-19T06:46:43;24.40;60.30
12477;DHT22;6303;51.504;6.300;2023-09-19T06:49:12;24.50;60.30
12477;DHT22;6303;51.504;6.300;2023-09-19T06:51:41;24.30;59.80
12477;DHT22;6303;51.504;6.300;2023-09-19T06:54:10;24.30;60.20
12477;DHT22;6303;51.504;6.300;2023-09-19T06:56:38;24.40;60.60
12477;DHT22;6303;51.504;6.300;2023-09-19T06:59:07;24.40;60.20
12477;DHT22;6303;51.504;6.300;2023-09-19T07:01:34;24.60;60.00
12477;DHT22;6303;51.504;6.300;2023-09-19T07:04:03;24.80;59.70
12477;DHT22;6303;51.504;6.300;2023-09-19T07:06:31;24.60;59.50
12477;DHT22;6303;51.504;6.300;2023-09-19T07:08:59;24.50;59.90
12477;DHT22;6303;51.504;6.300;2023-09-19T07:11:28;24.40;60.20
12477;DHT22;6303;51.504;6.300;2023-09-19T07:13:57;24.20;59.90
12477;DHT22;6303;51.504;6.300;2023-09-19T07:16:24;24.20;60.40
12477;DHT22;6303;51.504;6.300;2023-09-19T07:18:55;24.20;60.70
12477;DHT22;6303;51.504;6.300;2023-09-19T07:21:23;24.40;60.80
12477;DHT22;6303;51.504;6.300;2023-09-19T07:23:51;24.40;60.30
12477;DHT22;6303;51.504;6.300;2023-09-19T07:26:18;24.30;60.30
12477;DHT22;6303;51.504;6.300;2023-09-19T07:28:46;24.20;60.90
12477;DHT22;6303;51.504;6.300;2023-09-19T07:31:13;24.00;61.00
12477;DHT22;6303;51.504;6.300;2023-09-19T07:33:40;23.90;61.50
12477;DHT22;6303;51.504;6.300;2023-09-19T07:36:11;23.90;61.80
12477;DHT22;6303;51.504;6.300;2023-09-19T07:38:39;24.10;61.70
12477;DHT22;6303;51.504;6.300;2023-09-19T07:41:07;24.10;61.20
12477;DHT22;6303;51.504;6.300;2023-09-19T07:43:35;24.10;61.10
12477;DHT22;6303;51.504;6.300;2023-09-19T07:46:06;24.20;61.00
12477;DHT22;6303;51.504;6.300;2023-09-19T07:48:34;24.30;60.70
12477;DHT22;6303;51.504;6.300;2023-09-19T07:51:03;24.60;60.10
12477;DHT22;6303;51.504;6.300;2023-09-19T07:53:30;24.70;59.50
12477;DHT22;6303;51.504;6.300;2023-09-19T07:56:02;24.60;59.50
12477;DHT22;6303;51.504;6.300;2023-09-19T07:58:30;24.60;59.80
12477;DHT22;6303;51.504;6.300;2023-09-19T08:01:03;24.60;59.60
12477;DHT22;6303;51.504;6.300;2023-09-19T08:03:31;24.70;59.60
12477;DHT22;6303;51.504;6.300;2023-09-19T08:05:59;24.60;59.80
12477;DHT22;6303;51.504;6.300;2023-09-19T08:08:26;24.10;60.60
12477;DHT22;6303;51.504;6.300;2023-09-19T08:10:54;24.10;61.10
12477;DHT22;6303;51.504;6.300;2023-09-19T08:13:22;24.20;61.00
12477;DHT22;6303;51.504;6.300;2023-09-19T08:15:50;24.10;60.90
12477;DHT22;6303;51.504;6.300;2023-09-19T08:18:18;24.40;60.80
12477;DHT22;6303;51.504;6.300;2023-09-19T08:20:51;24.60;60.00
12477;DHT22;6303;51.504;6.300;2023-09-19T08:23:18;24.80;59.60
12477;DHT22;6303;51.504;6.300;2023-09-19T08:25:45;24.90;59.10
12477;DHT22;6303;51.504;6.300;2023-09-19T08:28:12;25.00;59.00
12477;DHT22;6303;51.504;6.300;2023-09-19T08:30:45;25.20;58.70
12477;DHT22;6303;51.504;6.300;2023-09-19T08:33:12;25.30;58.30
12477;DHT22;6303;51.504;6.300;2023-09-19T08:35:40;25.40;58.80
12477;DHT22;6303;51.504;6.300;2023-09-19T08:38:10;25.40;57.90
12477;DHT22;6303;51.504;6.300;2023-09-19T08:40:37;25.60;57.70
12477;DHT22;6303;51.504;6.300;2023-09-19T08:43:06;25.70;57.50
12477;DHT22;6303;51.504;6.300;2023-09-19T08:45:34;25.70;57.10
12477;DHT22;6303;51.504;6.300;2023-09-19T08:48:15;25.60;57.40
12477;DHT22;6303;51.504;6.300;2023-09-19T08:50:48;25.80;57.30
12477;DHT22;6303;51.504;6.300;2023-09-19T08:53:25;25.90;56.90
12477;DHT22;6303;51.504;6.300;2023-09-19T08:55:53;25.90;57.00
12477;DHT22;6303;51.504;6.300;2023-09-19T08:58:26;26.00;57.00
12477;DHT22;6303;51.504;6.300;2023-09-19T09:00:56;26.10;56.80
12477;DHT22;6303;51.504;6.300;2023-09-19T09:03:26;26.20;56.70
12477;DHT22;6303;51.504;6.300;2023-09-19T09:05:57;26.20;56.20
12477;DHT22;6303;51.504;6.300;2023-09-19T09:08:25;26.30;56.00
12477;DHT22;6303;51.504;6.300;2023-09-19T09:10:53;26.30;56.10
12477;DHT22;6303;51.504;6.300;2023-09-19T09:13:20;26.30;56.10
12477;DHT22;6303;51.504;6.300;2023-09-19T09:15:48;26.40;56.00
12477;DHT22;6303;51.504;6.300;2023-09-19T09:18:16;26.50;55.90
12477;DHT22;6303;51.504;6.300;2023-09-19T09:20:43;26.40;56.10
12477;DHT22;6303;51.504;6.300;2023-09-19T09:23:11;26.40;55.60
12477;DHT22;6303;51.504;6.300;2023-09-19T09:25:54;26.00;55.80
12477;DHT22;6303;51.504;6.300;2023-09-19T09:28:23;25.60;56.80
12477;DHT22;6303;51.504;6.300;2023-09-19T09:30:50;25.70;56.70
12477;DHT22;6303;51.504;6.300;2023-09-19T09:33:18;25.90;56.40
12477;DHT22;6303;51.504;6.300;2023-09-19T09:35:52;26.10;56.20
12477;DHT22;6303;51.504;6.300;2023-09-19T09:38:23;26.10;56.10
12477;DHT22;6303;51.504;6.300;2023-09-19T09:40:55;25.80;56.30
12477;DHT22;6303;51.504;6.300;2023-09-19T09:43:29;26.10;56.50
12477;DHT22;6303;51.504;6.300;2023-09-19T09:46:07;26.30;56.00
12477;DHT22;6303;51.504;6.300;2023-09-19T09:48:59;26.30;55.80
12477;DHT22;6303;51.504;6.300;2023-09-19T09:51:48;26.60;55.50
12477;DHT22;6303;51.504;6.300;2023-09-19T09:54:24;26.80;55.30
12477;DHT22;6303;51.504;6.300;2023-09-19T09:56:55;26.70;55.20
12477;DHT22;6303;51.504;6.300;2023-09-19T09:59:47;26.60;55.30
12477;DHT22;6303;51.504;6.300;2023-09-19T10:02:15;26.40;55.30
12477;DHT22;6303;51.504;6.300;2023-09-19T10:04:49;26.20;55.30
12477;DHT22;6303;51.504;6.300;2023-09-19T10:07:26;26.00;55.70
12477;DHT22;6303;51.504;6.300;2023-09-19T10:10:01;26.20;55.60
12477;DHT22;6303;51.504;6.300;2023-09-19T10:12:43;26.40;54.80
12477;DHT22;6303;51.504;6.300;2023-09-19T10:15:11;26.20;55.10
12477;DHT22;6303;51.504;6.300;2023-09-19T10:17:43;26.30;55.10
12477;DHT22;6303;51.504;6.300;2023-09-19T10:20:13;26.90;55.20
12477;DHT22;6303;51.504;6.300;2023-09-19T10:23:07;26.60;54.60
12477;DHT22;6303;51.504;6.300;2023-09-19T10:25:40;26.70;54.40
12477;DHT22;6303;51.504;6.300;2023-09-19T10:28:10;26.50;54.50
12477;DHT22;6303;51.504;6.300;2023-09-19T10:30:38;26.30;54.50
12477;DHT22;6303;51.504;6.300;2023-09-19T10:33:12;26.20;54.60
12477;DHT22;6303;51.504;6.300;2023-09-19T10:35:41;26.10;54.90
12477;DHT22;6303;51.504;6.300;2023-09-19T10:38:11;26.40;54.90
12477;DHT22;6303;51.504;6.300;2023-09-19T10:40:39;27.00;55.00
12477;DHT22;6303;51.504;6.300;2023-09-19T10:43:15;26.60;54.50
12477;DHT22;6303;51.504;6.300;2023-09-19T10:45:44;26.80;54.40
12477;DHT22;6303;51.504;6.300;2023-09-19T10:48:12;26.70;54.40
12477;DHT22;6303;51.504;6.300;2023-09-19T10:50:45;26.90;54.30
12477;DHT22;6303;51.504;6.300;2023-09-19T10:53:13;27.00;54.20
12477;DHT22;6303;51.504;6.300;2023-09-19T10:55:41;27.10;53.90
12477;DHT22;6303;51.504;6.300;2023-09-19T10:58:27;27.00;54.30
12477;DHT22;6303;51.504;6.300;2023-09-19T11:00:56;27.00;53.90
12477;DHT22;6303;51.504;6.300;2023-09-19T11:03:27;26.70;54.20
12477;DHT22;6303;51.504;6.300;2023-09-19T11:06:05;26.70;54.50
12477;DHT22;6303;51.504;6.300;2023-09-19T11:09:00;26.60;54.60
12477;DHT22;6303;51.504;6.300;2023-09-19T11:11:46;26.60;54.60
12477;DHT22;6303;51.504;6.300;2023-09-19T11:14:30;26.70;54.60
12477;DHT22;6303;51.504;6.300;2023-09-19T11:20:24;26.30;54.50
12477;DHT22;6303;51.504;6.300;2023-09-19T11:23:23;26.00;55.20
12477;DHT22;6303;51.504;6.300;2023-09-19T11:25:54;25.80;54.70
12477;DHT22;6303;51.504;6.300;2023-09-19T11:28:31;25.60;55.40
12477;DHT22;6303;51.504;6.300;2023-09-19T11:31:00;25.70;55.40
12477;DHT22;6303;51.504;6.300;2023-09-19T11:33:47;26.00;54.90
12477;DHT22;6303;51.504;6.300;2023-09-19T11:36:16;26.20;54.50
12477;DHT22;6303;51.504;6.300;2023-09-19T11:39:01;25.40;54.10
12477;DHT22;6303;51.504;6.300;2023-09-19T11:41:38;26.20;54.20
12477;DHT22;6303;51.504;6.300;2023-09-19T11:44:33;26.40;54.30
12477;DHT22;6303;51.504;6.300;2023-09-19T11:47:06;26.70;54.20
12477;DHT22;6303;51.504;6.300;2023-09-19T11:49:35;26.90;54.00
12477;DHT22;6303;51.504;6.300;2023-09-19T11:52:07;27.10;53.80
12477;DHT22;6303;51.504;6.300;2023-09-19T11:54:35;27.30;53.70
12477;DHT22;6303;51.504;6.300;2023-09-19T11:57:06;27.50;53.50
12477;DHT22;6303;51.504;6.300;2023-09-19T11:59:38;27.60;53.30
12477;DHT22;6303;51.504;6.300;2023-09-19T12:02:07;27.70;53.20
12477;DHT22;6303;51.504;6.300;2023-09-19T12:04:39;27.70;53.10
12477;DHT22;6303;51.504;6.300;2023-09-19T12:07:08;27.80;53.90
12477;DHT22;6303;51.504;6.300;2023-09-19T12:09:41;27.80;53.20
12477;DHT22;6303;51.504;6.300;2023-09-19T12:12:10;27.80;53.10
12477;DHT22;6303;51.504;6.300;2023-09-19T12:14:39;27.90;53.20
12477;DHT22;6303;51.504;6.300;2023-09-19T12:17:10;27.90;53.00
12477;DHT22;6303;51.504;6.300;2023-09-19T12:19:38;27.90;52.70
12477;DHT22;6303;51.504;6.300;2023-09-19T12:22:06;27.90;52.40
12477;DHT22;6303;51.504;6.300;2023-09-19T12:24:35;27.90;52.70
12477;DHT22;6303;51.504;6.300;2023-09-19T12:27:05;27.90;52.80
12477;DHT22;6303;51.504;6.300;2023-09-19T12:29:41;27.90;52.80
12477;DHT22;6303;51.504;6.300;2023-09-19T12:32:10;27.90;52.90
12477;DHT22;6303;51.504;6.300;2023-09-19T12:34:38;27.90;52.90
12477;DHT22;6303;51.504;6.300;2023-09-19T12:37:09;27.90;53.00
12477;DHT22;6303;51.504;6.300;2023-09-19T12:39:43;27.90;53.10
12477;DHT22;6303;51.504;6.300;2023-09-19T12:42:15;27.80;53.10
12477;DHT22;6303;51.504;6.300;2023-09-19T12:44:44;27.80;53.20
12477;DHT22;6303;51.504;6.300;2023-09-19T12:47:14;27.80;53.30
12477;DHT22;6303;51.504;6.300;2023-09-19T12:50:08;27.80;53.40
12477;DHT22;6303;51.504;6.300;2023-09-19T12:52:39;27.70;53.50
12477;DHT22;6303;51.504;6.300;2023-09-19T12:55:07;27.70;53.50
12477;DHT22;6303;51.504;6.300;2023-09-19T12:57:36;27.70;53.70
12477;DHT22;6303;51.504;6.300;2023-09-19T13:00:06;27.70;53.70
12477;DHT22;6303;51.504;6.300;2023-09-19T13:05:53;27.70;53.70
12477;DHT22;6303;51.504;6.300;2023-09-19T13:08:25;27.80;53.80
12477;DHT22;6303;51.504;6.300;2023-09-19T13:11:03;27.70;53.80
12477;DHT22;6303;51.504;6.300;2023-09-19T13:13:32;27.70;54.00
12477;DHT22;6303;51.504;6.300;2023-09-19T13:16:02;27.60;53.90
12477;DHT22;6303;51.504;6.300;2023-09-19T13:18:31;27.60;54.00
12477;DHT22;6303;51.504;6.300;2023-09-19T13:21:08;27.60;54.00
12477;DHT22;6303;51.504;6.300;2023-09-19T13:23:41;27.60;54.10
12477;DHT22;6303;51.504;6.300;2023-09-19T13:26:09;27.60;54.20
12477;DHT22;6303;51.504;6.300;2023-09-19T13:28:37;27.60;54.30
12477;DHT22;6303;51.504;6.300;2023-09-19T13:31:04;27.50;54.30
12477;DHT22;6303;51.504;6.300;2023-09-19T13:33:34;27.50;54.30
12477;DHT22;6303;51.504;6.300;2023-09-19T13:36:01;27.50;55.00
12477;DHT22;6303;51.504;6.300;2023-09-19T13:38:30;27.50;54.50
12477;DHT22;6303;51.504;6.300;2023-09-19T13:40:59;27.50;54.50
12477;DHT22;6303;51.504;6.300;2023-09-19T13:43:26;27.50;54.50
12477;DHT22;6303;51.504;6.300;2023-09-19T13:45:54;27.50;54.50
12477;DHT22;6303;51.504;6.300;2023-09-19T13:48:23;27.50;54.50
12477;DHT22;6303;51.504;6.300;2023-09-19T13:50:51;27.50;54.60
12477;DHT22;6303;51.504;6.300;2023-09-19T13:53:19;27.50;54.60
12477;DHT22;6303;51.504;6.300;2023-09-19T13:55:46;27.50;54.60
12477;DHT22;6303;51.504;6.300;2023-09-19T13:58:14;27.50;55.30
12477;DHT22;6303;51.504;6.300;2023-09-19T14:00:41;27.50;54.70
12477;DHT22;6303;51.504;6.300;2023-09-19T14:03:08;27.50;54.70
12477;DHT22;6303;51.504;6.300;2023-09-19T14:05:36;27.50;54.80
12477;DHT22;6303;51.504;6.300;2023-09-19T14:08:05;27.40;54.70
12477;DHT22;6303;51.504;6.300;2023-09-19T14:10:32;27.40;54.80
12477;DHT22;6303;51.504;6.300;2023-09-19T14:13:00;27.50;54.90
12477;DHT22;6303;51.504;6.300;2023-09-19T14:15:27;27.40;54.90
12477;DHT22;6303;51.504;6.300;2023-09-19T14:17:56;27.40;54.90
12477;DHT22;6303;51.504;6.300;2023-09-19T14:20:25;27.40;54.90
12477;DHT22;6303;51.504;6.300;2023-09-19T14:22:53;27.40;55.00
12477;DHT22;6303;51.504;6.300;2023-09-19T14:25:22;27.40;55.00
12477;DHT22;6303;51.504;6.300;2023-09-19T14:27:49;27.40;55.10
12477;DHT22;6303;51.504;6.300;2023-09-19T14:30:16;27.40;55.10
12477;DHT22;6303;51.504;6.300;2023-09-19T14:32:43;27.40;55.10
12477;DHT22;6303;51.504;6.300;2023-09-19T14:35:10;27.40;55.20
12477;DHT22;6303;51.504;6.300;2023-09-19T14:37:40;27.40;55.20
12477;DHT22;6303;51.504;6.300;2023-09-19T14:40:09;27.40;55.20
12477;DHT22;6303;51.504;6.300;2023-09-19T14:42:39;27.40;55.20
12477;DHT22;6303;51.504;6.300;2023-09-19T14:45:07;27.30;55.20
12477;DHT22;6303;51.504;6.300;2023-09-19T14:47:35;27.30;55.20
12477;DHT22;6303;51.504;6.300;2023-09-19T14:50:04;27.40;55.30
12477;DHT22;6303;51.504;6.300;2023-09-19T14:52:32;27.30;55.30
12477;DHT22;6303;51.504;6.300;2023-09-19T14:55:00;27.40;55.40
12477;DHT22;6303;51.504;6.300;2023-09-19T14:57:27;27.30;55.30
12477;DHT22;6303;51.504;6.300;2023-09-19T14:59:56;27.30;55.30
12477;DHT22;6303;51.504;6.300;2023-09-19T15:02:23;27.30;55.40
12477;DHT22;6303;51.504;6.300;2023-09-19T15:04:52;27.30;55.40
12477;DHT22;6303;51.504;6.300;2023-09-19T15:07:19;27.30;55.40
12477;DHT22;6303;51.504;6.300;2023-09-19T15:09:46;27.30;55.40
12477;DHT22;6303;51.504;6.300;2023-09-19T15:12:13;27.30;55.40
12477;DHT22;6303;51.504;6.300;2023-09-19T15:14:41;27.10;55.30
12477;DHT22;6303;51.504;6.300;2023-09-19T15:17:10;27.30;55.50
12477;DHT22;6303;51.504;6.300;2023-09-19T15:19:37;27.30;55.40
12477;DHT22;6303;51.504;6.300;2023-09-19T15:22:04;27.30;55.40
12477;DHT22;6303;51.504;6.300;2023-09-19T15:24:32;27.30;55.40
12477;DHT22;6303;51.504;6.300;2023-09-19T15:27:00;27.30;55.40
12477;DHT22;6303;51.504;6.300;2023-09-19T15:29:27;27.30;55.50
12477;DHT22;6303;51.504;6.300;2023-09-19T15:31:55;26.90;55.20
12477;DHT22;6303;51.504;6.300;2023-09-19T15:34:29;27.30;55.50
12477;DHT22;6303;51.504;6.300;2023-09-19T15:36:56;27.30;55.50
12477;DHT22;6303;51.504;6.300;2023-09-19T15:39:23;27.30;55.50
12477;DHT22;6303;51.504;6.300;2023-09-19T15:41:50;27.30;55.50
12477;DHT22;6303;51.504;6.300;2023-09-19T15:44:18;27.30;55.50
12477;DHT22;6303;51.504;6.300;2023-09-19T15:46:46;27.30;55.60
12477;DHT22;6303;51.504;6.300;2023-09-19T15:49:14;27.30;55.60
12477;DHT22;6303;51.504;6.300;2023-09-19T15:51:42;27.30;55.60
12477;DHT22;6303;51.504;6.300;2023-09-19T15:54:12;27.30;55.60
12477;DHT22;6303;51.504;6.300;2023-09-19T15:56:40;27.30;55.60
12477;DHT22;6303;51.504;6.300;2023-09-19T15:59:08;27.30;55.70
12477;DHT22;6303;51.504;6.300;2023-09-19T16:01:38;27.30;55.70
12477;DHT22;6303;51.504;6.300;2023-09-19T16:04:06;27.30;55.70
12477;DHT22;6303;51.504;6.300;2023-09-19T16:06:35;27.30;55.70
12477;DHT22;6303;51.504;6.300;2023-09-19T16:09:05;27.30;55.80
12477;DHT22;6303;51.504;6.300;2023-09-19T16:11:34;27.30;55.70